Wyatt, Indiana
Current Conditions -  °F | °C
As of 4:54 PM on Monday 22 Dec 2014 (Local Time) from KSBN Reporting Station
Haze Haze  
Wind Chill: 28°   Ceiling: 900
Heat Index: 37°   Visibility: 5mi
Dew Point: 33°   Wind: 14mph
Humidity: 86%   Direction: 120°ESE
Pressure: 29.79"   Gusts: NA
Location:  41.53°N, 86.17°W
Report Text: KSBN 222154Z 12012KT 5SM BR OVC009 03/01 A2979 RMK AO2 SLP095 T00280006
Loading
Personal Weather Stations






























Interactive Weather Map New forecast layout! Learn more

10-Day Weather Forecast

Advertisements
Track Severe Weather on mobile